Wetterdaten: Woche 14.01.19 - 20.01.19 (KW3)
Datum Zeit Temp. Aussen Temp. o. S. +5cm Feuchte Auss Luftdruck Regen Sonnenschein Regendauer Solar Windben Empfang
14.01.2019 00:00 6,2 C 5,6 C 4,4 C 94 % 1002,6 hPa 0,2 l/m 0,00 h 0,77 h 0 W/m 19,0 km/h (3 Bft) 94,21 %
14.01.2019 01:00 5,7 C 4,6 C 4,0 C 95 % 1003,4 hPa 0,6 l/m 0,00 h 0,90 h 0 W/m 20,6 km/h (4 Bft) 98,71 %
14.01.2019 02:00 5,5 C 4,7 C 4,1 C 96 % 1004,1 hPa 0,4 l/m 0,00 h 0,47 h 0 W/m 15,2 km/h (3 Bft) 97,81 %
14.01.2019 03:00 5,8 C 5,0 C 4,4 C 96 % 1004,9 hPa 0,2 l/m 0,00 h 0,50 h 0 W/m 17,8 km/h (3 Bft) 96,67 %
14.01.2019 04:00 5,7 C 4,9 C 4,3 C 96 % 1005,6 hPa 0,0 l/m 0,00 h 0,00 h 0 W/m 19,1 km/h (3 Bft) 99,37 %
14.01.2019 05:00 5,3 C 4,4 C 3,9 C 95 % 1006,2 hPa 0,0 l/m 0,00 h 0,00 h 0 W/m 16,3 km/h (3 Bft) 95,68 %
14.01.2019 06:00 5,4 C 4,4 C 3,9 C 95 % 1006,7 hPa 0,2 l/m 0,00 h 0,53 h 0 W/m 14,7 km/h (3 Bft) 99,12 %
14.01.2019 07:00 5,4 C 4,4 C 3,9 C 96 % 1007,3 hPa 0,0 l/m 0,00 h 0,80 h 0 W/m 14,5 km/h (3 Bft) 96,94 %
14.01.2019 08:00 5,2 C 4,2 C 3,8 C 96 % 1008,4 hPa 0,4 l/m 0,00 h 0,90 h 8 W/m 17,6 km/h (3 Bft) 96,01 %
14.01.2019 09:00 4,4 C 3,2 C 3,1 C 96 % 1009,9 hPa 1,6 l/m 0,00 h 0,67 h 13 W/m 18,6 km/h (3 Bft) 99,29 %
14.01.2019 10:00 4,2 C 5,7 C 3,2 C 97 % 1010,7 hPa 0,0 l/m 0,43 h 0,00 h 130 W/m 16,7 km/h (3 Bft) 95,16 %
14.01.2019 11:00 5,0 C 5,8 C 3,5 C 96 % 1011,5 hPa 0,0 l/m 0,33 h 0,43 h 119 W/m 25,9 km/h (4 Bft) 97,01 %
14.01.2019 12:00 4,6 C 7,0 C 3,6 C 94 % 1012,1 hPa 0,0 l/m 0,33 h 0,00 h 164 W/m 16,2 km/h (3 Bft) 94,51 %
14.01.2019 13:00 6,1 C 8,7 C 4,5 C 90 % 1012,4 hPa 0,2 l/m 0,50 h 0,10 h 192 W/m 24,7 km/h (4 Bft) 96,87 %
14.01.2019 14:00 4,7 C 6,7 C 2,9 C 90 % 1013,2 hPa 0,2 l/m 0,57 h 0,13 h 145 W/m 25,0 km/h (4 Bft) 98,65 %
14.01.2019 15:00 4,9 C 4,9 C 3,2 C 90 % 1013,9 hPa 0,0 l/m 0,37 h 0,00 h 68 W/m 22,8 km/h (4 Bft) 94,99 %
14.01.2019 16:00 4,0 C 3,3 C 2,3 C 89 % 1015,0 hPa 0,0 l/m 0,07 h 0,00 h 16 W/m 15,8 km/h (3 Bft) 98,44 %
14.01.2019 17:00 3,4 C 2,5 C 1,5 C 90 % 1015,7 hPa 0,0 l/m 0,00 h 0,00 h 0 W/m 7,9 km/h (2 Bft) 98,27 %
14.01.2019 18:00 2,8 C 2,1 C 1,2 C 91 % 1016,2 hPa 0,0 l/m 0,00 h 0,00 h 0 W/m 9,0 km/h (2 Bft) 97,27 %
14.01.2019 19:00 3,0 C 2,7 C 1,8 C 92 % 1017,0 hPa 0,0 l/m 0,00 h 0,00 h 0 W/m 11,1 km/h (2 Bft) 97,06 %
14.01.2019 20:00 2,6 C 1,5 C 1,0 C 92 % 1017,6 hPa 0,0 l/m 0,00 h 0,00 h 0 W/m 5,9 km/h (2 Bft) 96,92 %
14.01.2019 21:00 2,4 C 2,1 C 1,4 C 93 % 1018,0 hPa 0,0 l/m 0,00 h 0,23 h 0 W/m 11,0 km/h (2 Bft) 98,36 %
14.01.2019 22:00 2,5 C 1,7 C 1,1 C 94 % 1018,1 hPa 0,0 l/m 0,00 h 0,10 h 0 W/m 9,8 km/h (2 Bft) 97,35 %
14.01.2019 23:00 1,8 C 0,7 C 0,3 C 94 % 1018,5 hPa 0,0 l/m 0,00 h 0,00 h 0 W/m 5,9 km/h (2 Bft) 96,22 %
15.01.2019 00:00 1,4 C 0,8 C 0,2 C 95 % 1018,6 hPa 0,0 l/m 0,00 h 0,00 h 0 W/m 6,0 km/h (2 Bft) 98,57 %
15.01.2019 01:00 1,3 C 0,6 C 0,1 C 95 % 1018,5 hPa 0,0 l/m 0,00 h 0,00 h 0 W/m 4,9 km/h (1 Bft) 98,68 %
15.01.2019 02:00 1,0 C 0,6 C 0,0 C 96 % 1018,6 hPa 0,0 l/m 0,00 h 0,00 h 0 W/m 4,6 km/h (1 Bft) 95,89 %
15.01.2019 03:00 1,5 C 1,4 C 0,9 C 96 % 1018,7 hPa 0,2 l/m 0,00 h 0,00 h 0 W/m 8,6 km/h (2 Bft) 97,12 %
15.01.2019 04:00 2,3 C 2,2 C 1,6 C 97 % 1018,2 hPa 0,0 l/m 0,00 h 0,00 h 0 W/m 8,5 km/h (2 Bft) 99,08 %
15.01.2019 05:00 2,3 C 1,7 C 1,1 C 97 % 1017,8 hPa 0,0 l/m 0,00 h 0,00 h 0 W/m 10,2 km/h (2 Bft) 97,36 %
15.01.2019 06:00 2,5 C 2,2 C 1,5 C 97 % 1017,4 hPa 0,0 l/m 0,00 h 0,00 h 0 W/m 9,2 km/h (2 Bft) 96,57 %
15.01.2019 07:00 2,9 C 2,9 C 2,2 C 97 % 1016,9 hPa 0,0 l/m 0,00 h 0,10 h 0 W/m 9,5 km/h (2 Bft) 97,82 %
15.01.2019 08:00 3,5 C 3,4 C 2,8 C 97 % 1017,0 hPa 0,0 l/m 0,00 h 0,00 h 11 W/m 11,9 km/h (2 Bft) 98,10 %
15.01.2019 09:00 4,1 C 4,4 C 3,4 C 97 % 1016,7 hPa 0,0 l/m 0,40 h 0,00 h 56 W/m 15,0 km/h (3 Bft) 96,08 %
15.01.2019 10:00 5,0 C 5,8 C 4,6 C 96 % 1016,8 hPa 0,0 l/m 0,37 h 0,00 h 104 W/m 13,3 km/h (3 Bft) 98,22 %
15.01.2019 11:00 5,9 C 6,2 C 5,5 C 93 % 1016,7 hPa 0,0 l/m 0,00 h 0,00 h 112 W/m 17,5 km/h (3 Bft) 98,29 %
15.01.2019 12:00 6,6 C 6,7 C 6,1 C 88 % 1016,3 hPa 0,0 l/m 0,00 h 0,00 h 89 W/m 19,1 km/h (3 Bft) 94,57 %
15.01.2019 13:00 7,0 C 6,9 C 6,5 C 85 % 1015,9 hPa 0,0 l/m 0,00 h 0,00 h 93 W/m 18,6 km/h (3 Bft) 99,36 %
15.01.2019 14:00 7,0 C 6,7 C 6,2 C 85 % 1015,4 hPa 0,0 l/m 0,00 h 0,00 h 50 W/m 19,0 km/h (3 Bft) 97,75 %
15.01.2019 15:00 6,7 C 6,1 C 5,6 C 87 % 1015,2 hPa 0,0 l/m 0,00 h 0,00 h 32 W/m 15,8 km/h (3 Bft) 95,14 %
15.01.2019 16:00 6,7 C 6,1 C 5,6 C 88 % 1015,0 hPa 0,0 l/m 0,00 h 0,00 h 10 W/m 14,1 km/h (3 Bft) 98,96 %
15.01.2019 17:00 6,5 C 6,1 C 5,5 C 89 % 1014,9 hPa 0,0 l/m 0,00 h 0,00 h 0 W/m 15,5 km/h (3 Bft) 97,92 %
15.01.2019 18:00 6,4 C 6,1 C 5,5 C 90 % 1014,9 hPa 0,0 l/m 0,00 h 0,00 h 0 W/m 14,1 km/h (3 Bft) 95,95 %
15.01.2019 19:00 6,4 C 6,1 C 5,6 C 89 % 1014,6 hPa 0,0 l/m 0,00 h 0,00 h 0 W/m 15,4 km/h (3 Bft) 98,17 %
15.01.2019 20:00 6,4 C 6,1 C 5,6 C 89 % 1014,5 hPa 0,0 l/m 0,00 h 0,00 h 0 W/m 12,8 km/h (3 Bft) 98,30 %
15.01.2019 21:00 6,5 C 6,1 C 5,6 C 89 % 1014,4 hPa 0,0 l/m 0,00 h 0,00 h 0 W/m 18,8 km/h (3 Bft) 95,94 %
15.01.2019 22:00 6,5 C 6,1 C 5,6 C 90 % 1014,4 hPa 0,0 l/m 0,00 h 0,00 h 0 W/m 15,5 km/h (3 Bft) 97,07 %
15.01.2019 23:00 6,4 C 6,1 C 5,6 C 90 % 1014,0 hPa 0,0 l/m 0,00 h 0,00 h 0 W/m 18,7 km/h (3 Bft) 99,65 %
16.01.2019 00:00 6,4 C 6,1 C 5,6 C 91 % 1013,5 hPa 0,0 l/m 0,00 h 0,00 h 0 W/m 16,4 km/h (3 Bft) 95,80 %
16.01.2019 01:00 6,3 C 5,6 C 5,0 C 93 % 1013,1 hPa 0,0 l/m 0,00 h 0,00 h 0 W/m 19,7 km/h (3 Bft) 96,73 %
16.01.2019 02:00 6,1 C 5,6 C 5,0 C 94 % 1012,7 hPa 0,0 l/m 0,00 h 0,00 h 0 W/m 20,4 km/h (4 Bft) 99,36 %
16.01.2019 03:00 5,9 C 5,6 C 5,0 C 94 % 1012,5 hPa 0,0 l/m 0,00 h 0,00 h 0 W/m 17,6 km/h (3 Bft) 95,58 %
16.01.2019 04:00 5,9 C 5,3 C 4,7 C 93 % 1011,9 hPa 0,0 l/m 0,00 h 0,00 h 0 W/m 18,6 km/h (3 Bft) 98,09 %
16.01.2019 05:00 5,9 C 5,6 C 5,0 C 92 % 1011,0 hPa 0,0 l/m 0,00 h 0,00 h 0 W/m 18,1 km/h (3 Bft) 98,82 %
16.01.2019 06:00 6,1 C 5,6 C 5,0 C 89 % 1010,4 hPa 0,0 l/m 0,00 h 0,00 h 0 W/m 21,0 km/h (4 Bft) 96,41 %
16.01.2019 07:00 6,2 C 5,7 C 5,0 C 86 % 1010,0 hPa 0,0 l/m 0,00 h 0,00 h 0 W/m 21,6 km/h (4 Bft) 97,15 %
16.01.2019 08:00 6,2 C 5,6 C 5,0 C 84 % 1009,8 hPa 0,0 l/m 0,00 h 0,00 h 7 W/m 26,2 km/h (4 Bft) 97,72 %
16.01.2019 09:00 6,1 C 5,6 C 5,0 C 83 % 1009,8 hPa 0,0 l/m 0,00 h 0,00 h 24 W/m 28,4 km/h (4 Bft) 97,15 %
16.01.2019 10:00 6,0 C 5,6 C 5,0 C 83 % 1009,5 hPa 0,0 l/m 0,00 h 0,00 h 60 W/m 27,5 km/h (4 Bft) 97,01 %
16.01.2019 11:00 5,9 C 5,8 C 5,2 C 82 % 1008,9 hPa 0,0 l/m 0,00 h 0,00 h 78 W/m 25,5 km/h (4 Bft) 97,25 %
16.01.2019 12:00 6,2 C 5,9 C 5,5 C 81 % 1008,1 hPa 0,0 l/m 0,00 h 0,00 h 76 W/m 27,0 km/h (4 Bft) 97,76 %
16.01.2019 13:00 5,9 C 5,6 C 5,0 C 82 % 1007,1 hPa 0,0 l/m 0,00 h 0,00 h 40 W/m 23,9 km/h (4 Bft) 97,65 %
16.01.2019 14:00 5,9 C 5,6 C 5,0 C 82 % 1006,0 hPa 0,0 l/m 0,00 h 0,00 h 42 W/m 19,3 km/h (3 Bft) 97,43 %
16.01.2019 15:00 6,0 C 5,6 C 5,0 C 81 % 1005,0 hPa 0,0 l/m 0,00 h 0,00 h 32 W/m 19,0 km/h (3 Bft) 97,36 %
16.01.2019 16:00 5,9 C 5,4 C 4,8 C 82 % 1004,3 hPa 0,0 l/m 0,00 h 0,00 h 14 W/m 15,2 km/h (3 Bft) 97,50 %
16.01.2019 17:00 5,4 C 4,4 C 3,8 C 83 % 1003,4 hPa 0,0 l/m 0,00 h 0,00 h 0 W/m 10,4 km/h (2 Bft) 97,16 %
16.01.2019 18:00 4,7 C 3,9 C 3,3 C 86 % 1002,9 hPa 0,0 l/m 0,00 h 0,00 h 0 W/m 7,8 km/h (2 Bft) 97,09 %
16.01.2019 19:00 4,8 C 4,7 C 4,1 C 86 % 1002,4 hPa 0,0 l/m 0,00 h 0,00 h 0 W/m 18,3 km/h (3 Bft) 98,36 %
16.01.2019 20:00 5,5 C 5,0 C 4,4 C 83 % 1001,8 hPa 0,0 l/m 0,00 h 0,00 h 0 W/m 24,8 km/h (4 Bft) 97,55 %
16.01.2019 21:00 5,5 C 5,0 C 4,4 C 82 % 1001,4 hPa 0,0 l/m 0,00 h 0,00 h 0 W/m 22,2 km/h (4 Bft) 96,17 %
16.01.2019 22:00 5,6 C 5,0 C 4,4 C 84 % 1001,0 hPa 0,0 l/m 0,00 h 0,00 h 0 W/m 24,6 km/h (4 Bft) 98,27 %
16.01.2019 23:00 5,8 C 5,4 C 4,7 C 84 % 1000,6 hPa 0,0 l/m 0,00 h 0,07 h 0 W/m 30,5 km/h (5 Bft) 98,06 %
17.01.2019 00:00 5,5 C 4,2 C 3,7 C 88 % 1000,3 hPa 0,0 l/m 0,00 h 1,00 h 0 W/m 27,9 km/h (4 Bft) 96,31 %
17.01.2019 01:00 5,1 C 4,1 C 3,5 C 92 % 1000,2 hPa 0,2 l/m 0,00 h 0,97 h 0 W/m 26,1 km/h (4 Bft) 97,88 %
17.01.2019 02:00 5,1 C 3,9 C 3,6 C 94 % 1000,3 hPa 0,2 l/m 0,00 h 0,90 h 0 W/m 17,4 km/h (3 Bft) 97,59 %
17.01.2019 03:00 5,2 C 4,3 C 3,9 C 95 % 1000,5 hPa 0,0 l/m 0,00 h 0,37 h 0 W/m 12,9 km/h (3 Bft) 97,82 %
17.01.2019 04:00 5,2 C 4,4 C 3,9 C 96 % 1000,4 hPa 0,0 l/m 0,00 h 0,00 h 0 W/m 8,8 km/h (2 Bft) 96,74 %
17.01.2019 05:00 5,2 C 4,4 C 3,9 C 96 % 1000,3 hPa 0,0 l/m 0,00 h 0,00 h 0 W/m 8,0 km/h (2 Bft) 97,07 %
17.01.2019 06:00 5,2 C 4,4 C 3,9 C 96 % 1000,2 hPa 0,0 l/m 0,00 h 0,00 h 0 W/m 6,9 km/h (2 Bft) 98,51 %
17.01.2019 07:00 5,1 C 4,4 C 3,9 C 96 % 1000,1 hPa 0,0 l/m 0,00 h 0,00 h 0 W/m 9,0 km/h (2 Bft) 98,00 %
17.01.2019 08:00 4,8 C 4,4 C 3,4 C 94 % 1000,0 hPa 0,0 l/m 0,00 h 0,00 h 10 W/m 10,4 km/h (2 Bft) 95,51 %
17.01.2019 09:00 5,1 C 4,6 C 4,0 C 93 % 1000,0 hPa 0,2 l/m 0,00 h 0,00 h 33 W/m 16,6 km/h (3 Bft) 98,72 %
17.01.2019 10:00 5,2 C 4,4 C 3,9 C 93 % 999,6 hPa 1,0 l/m 0,00 h 0,57 h 30 W/m 19,6 km/h (3 Bft) 98,15 %
17.01.2019 11:00 4,7 C 3,4 C 3,1 C 94 % 999,5 hPa 2,2 l/m 0,00 h 0,97 h 36 W/m 15,5 km/h (3 Bft) 89,64 %
17.01.2019 12:00 4,3 C 3,3 C 3,1 C 96 % 999,6 hPa 0,4 l/m 0,00 h 0,57 h 50 W/m 17,3 km/h (3 Bft) 95,66 %
17.01.2019 13:00 3,7 C 2,9 C 2,7 C 96 % 1000,3 hPa 0,2 l/m 0,00 h 0,77 h 58 W/m 14,1 km/h (3 Bft) 97,10 %
17.01.2019 14:00 3,6 C 2,9 C 2,7 C 96 % 1001,0 hPa 0,0 l/m 0,00 h 0,97 h 75 W/m 21,1 km/h (4 Bft) 96,08 %
17.01.2019 15:00 3,5 C 2,8 C 2,2 C 96 % 1002,2 hPa 0,2 l/m 0,10 h 0,30 h 54 W/m 16,5 km/h (3 Bft) 98,29 %
17.01.2019 16:00 2,0 C 1,0 C 0,6 C 95 % 1003,3 hPa 0,8 l/m 0,07 h 0,50 h 14 W/m 13,0 km/h (3 Bft) 93,39 %
17.01.2019 17:00 2,1 C 1,2 C 0,9 C 96 % 1004,2 hPa 0,4 l/m 0,00 h 0,87 h 0 W/m 17,7 km/h (3 Bft) 98,36 %
17.01.2019 18:00 1,8 C 0,7 C 0,2 C 96 % 1005,2 hPa 0,4 l/m 0,00 h 1,00 h 0 W/m 15,5 km/h (3 Bft) 97,25 %
17.01.2019 19:00 0,8 C 0,0 C -0,4 C 96 % 1006,3 hPa 0,4 l/m 0,00 h 0,50 h 0 W/m 10,9 km/h (2 Bft) 96,25 %
17.01.2019 20:00 0,8 C 0,0 C -0,4 C 97 % 1007,6 hPa 0,2 l/m 0,00 h 0,00 h 0 W/m 11,8 km/h (2 Bft) 98,87 %
17.01.2019 21:00 0,7 C -0,1 C -0,4 C 97 % 1008,7 hPa 0,0 l/m 0,00 h 0,07 h 0 W/m 11,1 km/h (2 Bft) 97,20 %
17.01.2019 22:00 0,3 C -0,6 C -1,0 C 97 % 1009,9 hPa 0,0 l/m 0,00 h 0,00 h 0 W/m 9,5 km/h (2 Bft) 96,14 %
17.01.2019 23:00 0,2 C -0,6 C -1,0 C 97 % 1010,7 hPa 0,0 l/m 0,00 h 0,03 h 0 W/m 11,9 km/h (2 Bft) 99,40 %
18.01.2019 00:00 0,2 C -0,6 C -1,0 C 97 % 1011,4 hPa 0,0 l/m 0,00 h 0,00 h 0 W/m 10,6 km/h (2 Bft) 97,18 %
18.01.2019 01:00 0,0 C -0,8 C -1,1 C 97 % 1012,1 hPa 0,0 l/m 0,00 h 0,00 h 0 W/m 9,7 km/h (2 Bft) 96,08 %
18.01.2019 02:00 -0,2 C -1,1 C -1,4 C 97 % 1012,9 hPa 0,0 l/m 0,00 h 0,00 h 0 W/m 9,2 km/h (2 Bft) 99,00 %
18.01.2019 03:00 -0,6 C -1,6 C -1,9 C 97 % 1013,8 hPa 0,0 l/m 0,00 h 0,00 h 0 W/m 5,1 km/h (1 Bft) 96,58 %
18.01.2019 04:00 -1,0 C -2,1 C -2,2 C 97 % 1014,7 hPa 0,0 l/m 0,00 h 0,00 h 0 W/m 2,3 km/h (1 Bft) 98,86 %
18.01.2019 05:00 -1,4 C -2,6 C -2,7 C 97 % 1015,4 hPa 0,0 l/m 0,00 h 0,00 h 0 W/m 0,4 km/h (0 Bft) 95,87 %
18.01.2019 06:00 -1,9 C -2,6 C -2,8 C 97 % 1015,9 hPa 0,0 l/m 0,00 h 0,03 h 0 W/m 0,0 km/h (0 Bft) 97,97 %
18.01.2019 07:00 -2,4 C -3,2 C -3,9 C 97 % 1016,7 hPa 0,0 l/m 0,00 h 0,00 h 0 W/m 0,0 km/h (0 Bft) 98,36 %
18.01.2019 08:00 -2,8 C -3,7 C -4,1 C 97 % 1017,2 hPa 0,0 l/m 0,00 h 0,00 h 9 W/m 0,0 km/h (0 Bft) 96,86 %
18.01.2019 09:00 -2,5 C -1,9 C -3,2 C 97 % 1017,9 hPa 0,0 l/m 0,37 h 0,00 h 65 W/m 0,1 km/h (0 Bft) 96,69 %
18.01.2019 10:00 -0,6 C 1,6 C -1,6 C 98 % 1018,6 hPa 0,2 l/m 0,73 h 0,00 h 154 W/m 0,2 km/h (0 Bft) 96,57 %
18.01.2019 11:00 0,6 C 2,7 C -0,9 C 98 % 1019,1 hPa 0,4 l/m 0,63 h 0,00 h 175 W/m 3,6 km/h (1 Bft) 95,96 %
18.01.2019 12:00 0,2 C 0,3 C -0,6 C 98 % 1019,0 hPa 0,0 l/m 0,03 h 0,00 h 124 W/m 4,5 km/h (1 Bft) 98,71 %
18.01.2019 13:00 -0,4 C -0,7 C -1,1 C 98 % 1018,7 hPa 0,2 l/m 0,03 h 0,00 h 107 W/m 6,3 km/h (2 Bft) 97,23 %
18.01.2019 14:00 -0,7 C -1,0 C -1,5 C 98 % 1018,6 hPa 0,0 l/m 0,00 h 0,00 h 77 W/m 6,4 km/h (2 Bft) 96,44 %
18.01.2019 15:00 -1,1 C -1,6 C -2,0 C 98 % 1018,5 hPa 0,0 l/m 0,00 h 0,00 h 29 W/m 0,0 km/h (0 Bft) 97,92 %
18.01.2019 16:00 -1,4 C -1,9 C -2,3 C 98 % 1018,3 hPa 0,0 l/m 0,00 h 0,00 h 15 W/m 0,0 km/h (0 Bft) 98,72 %
18.01.2019 17:00 -1,9 C -2,9 C -2,6 C 97 % 1018,1 hPa 0,0 l/m 0,00 h 0,00 h 0 W/m 0,0 km/h (0 Bft) 95,53 %
18.01.2019 18:00 -2,2 C -3,4 C -3,5 C 98 % 1018,2 hPa 0,0 l/m 0,00 h 0,00 h 0 W/m 0,0 km/h (0 Bft) 97,28 %
18.01.2019 19:00 -2,5 C -2,7 C -3,4 C 97 % 1018,1 hPa 0,0 l/m 0,00 h 0,00 h 0 W/m 0,0 km/h (0 Bft) 97,65 %
18.01.2019 20:00 -1,8 C -2,2 C -2,8 C 98 % 1017,8 hPa 0,0 l/m 0,00 h 0,00 h 0 W/m 0,0 km/h (0 Bft) 98,86 %
18.01.2019 21:00 -1,7 C -2,2 C -2,8 C 98 % 1017,6 hPa 0,0 l/m 0,00 h 0,00 h 0 W/m 0,0 km/h (0 Bft) 96,07 %
18.01.2019 22:00 -1,6 C -2,2 C -2,8 C 98 % 1017,6 hPa 0,0 l/m 0,00 h 0,00 h 0 W/m 2,2 km/h (1 Bft) 97,85 %
18.01.2019 23:00 -1,7 C -2,2 C -2,8 C 98 % 1017,7 hPa 0,0 l/m 0,00 h 0,00 h 0 W/m 6,0 km/h (2 Bft) 98,43 %
19.01.2019 00:00 -1,7 C -2,1 C -2,8 C 98 % 1017,7 hPa 0,0 l/m 0,00 h 0,00 h 0 W/m 5,8 km/h (1 Bft) 96,85 %
19.01.2019 01:00 -1,7 C -2,1 C -2,8 C 98 % 1017,4 hPa 0,0 l/m 0,00 h 0,00 h 0 W/m 4,9 km/h (1 Bft) 97,72 %
19.01.2019 02:00 -1,7 C -2,2 C -2,9 C 98 % 1017,1 hPa 0,0 l/m 0,00 h 0,00 h 0 W/m 6,5 km/h (2 Bft) 97,79 %
19.01.2019 03:00 -2,0 C -2,3 C -3,3 C 97 % 1016,9 hPa 0,0 l/m 0,00 h 0,00 h 0 W/m 4,3 km/h (1 Bft) 97,32 %
19.01.2019 04:00 -2,2 C -2,8 C -3,4 C 97 % 1016,4 hPa 0,0 l/m 0,00 h 0,00 h 0 W/m 4,8 km/h (1 Bft) 96,87 %
19.01.2019 05:00 -2,5 C -3,1 C -3,9 C 96 % 1016,2 hPa 0,0 l/m 0,00 h 0,00 h 0 W/m 4,5 km/h (1 Bft) 98,72 %
19.01.2019 06:00 -2,8 C -3,3 C -4,0 C 96 % 1015,8 hPa 0,0 l/m 0,00 h 0,00 h 0 W/m 1,4 km/h (1 Bft) 97,72 %
19.01.2019 07:00 -2,9 C -3,3 C -4,1 C 96 % 1015,6 hPa 0,0 l/m 0,00 h 0,00 h 0 W/m 5,0 km/h (1 Bft) 95,65 %
19.01.2019 08:00 -2,7 C -3,0 C -3,9 C 95 % 1015,6 hPa 0,0 l/m 0,00 h 0,00 h 9 W/m 8,3 km/h (2 Bft) 99,01 %
19.01.2019 09:00 -2,4 C -2,2 C -3,2 C 94 % 1015,7 hPa 0,0 l/m 0,00 h 0,00 h 31 W/m 7,2 km/h (2 Bft) 96,94 %
19.01.2019 10:00 -1,5 C -0,0 C -2,4 C 93 % 1015,7 hPa 0,0 l/m 0,37 h 0,00 h 114 W/m 10,7 km/h (2 Bft) 96,88 %
19.01.2019 11:00 0,2 C 4,7 C -1,2 C 89 % 1015,4 hPa 0,2 l/m 0,97 h 0,00 h 290 W/m 11,3 km/h (2 Bft) 99,11 %
19.01.2019 12:00 2,3 C 7,0 C 2,2 C 80 % 1014,9 hPa 0,0 l/m 1,00 h 0,00 h 366 W/m 17,6 km/h (3 Bft) 97,15 %
19.01.2019 13:00 3,5 C 8,3 C 1,6 C 73 % 1014,1 hPa 0,0 l/m 1,00 h 0,00 h 351 W/m 14,8 km/h (3 Bft) 98,69 %
19.01.2019 14:00 3,8 C 7,5 C 2,1 C 69 % 1013,4 hPa 0,2 l/m 1,00 h 0,00 h 292 W/m 16,2 km/h (3 Bft) 96,05 %
19.01.2019 15:00 3,0 C 3,1 C 1,3 C 72 % 1012,9 hPa 0,0 l/m 0,27 h 0,00 h 91 W/m 10,0 km/h (2 Bft) 98,59 %
19.01.2019 16:00 2,0 C 1,3 C 0,1 C 75 % 1012,6 hPa 0,0 l/m 0,07 h 0,00 h 24 W/m 6,6 km/h (2 Bft) 97,58 %
19.01.2019 17:00 1,0 C -0,1 C -1,6 C 78 % 1012,4 hPa 0,0 l/m 0,00 h 0,00 h 5 W/m 6,1 km/h (2 Bft) 96,44 %
19.01.2019 18:00 0,1 C -0,9 C -2,1 C 81 % 1012,2 hPa 0,0 l/m 0,00 h 0,00 h 0 W/m 5,4 km/h (1 Bft) 96,76 %
19.01.2019 19:00 -0,1 C -0,7 C -1,8 C 79 % 1012,2 hPa 0,0 l/m 0,00 h 0,00 h 0 W/m 7,0 km/h (2 Bft) 98,58 %
19.01.2019 20:00 -0,2 C -0,8 C -1,7 C 78 % 1012,2 hPa 0,0 l/m 0,00 h 0,00 h 0 W/m 13,0 km/h (3 Bft) 96,16 %
19.01.2019 21:00 -0,6 C -1,3 C -2,0 C 80 % 1012,4 hPa 0,0 l/m 0,00 h 0,00 h 0 W/m 11,5 km/h (2 Bft) 97,29 %
19.01.2019 22:00 -1,1 C -1,8 C -2,5 C 80 % 1012,5 hPa 0,0 l/m 0,00 h 0,00 h 0 W/m 8,6 km/h (2 Bft) 97,44 %
19.01.2019 23:00 -1,6 C -2,6 C -3,3 C 82 % 1012,6 hPa 0,0 l/m 0,00 h 0,00 h 0 W/m 5,4 km/h (1 Bft) 97,16 %
20.01.2019 00:00 -2,3 C -3,4 C -4,1 C 83 % 1012,6 hPa 0,0 l/m 0,00 h 0,00 h 0 W/m 5,0 km/h (1 Bft) 99,01 %
20.01.2019 01:00 -2,9 C -3,9 C -4,4 C 84 % 1012,6 hPa 0,0 l/m 0,00 h 0,00 h 0 W/m 2,3 km/h (1 Bft) 94,31 %
20.01.2019 02:00 -3,5 C -4,7 C -5,1 C 85 % 1012,6 hPa 0,0 l/m 0,00 h 0,00 h 0 W/m 0,0 km/h (0 Bft) 98,15 %
20.01.2019 03:00 -3,8 C -3,9 C -4,7 C 85 % 1012,7 hPa 0,0 l/m 0,00 h 0,00 h 0 W/m 4,5 km/h (1 Bft) 97,30 %
20.01.2019 04:00 -2,8 C -3,7 C -4,4 C 80 % 1012,6 hPa 0,0 l/m 0,00 h 0,00 h 0 W/m 7,5 km/h (2 Bft) 96,51 %
20.01.2019 05:00 -3,7 C -5,1 C -5,7 C 82 % 1012,7 hPa 0,0 l/m 0,00 h 0,00 h 0 W/m 4,7 km/h (1 Bft) 97,22 %
20.01.2019 06:00 -4,6 C -6,2 C -6,7 C 84 % 1012,9 hPa 0,0 l/m 0,00 h 0,00 h 0 W/m 2,4 km/h (1 Bft) 98,56 %
20.01.2019 07:00 -5,5 C -6,9 C -7,4 C 85 % 1013,3 hPa 0,0 l/m 0,00 h 0,00 h 0 W/m 0,3 km/h (0 Bft) 96,33 %
20.01.2019 08:00 -6,0 C -6,7 C -7,4 C 88 % 1013,8 hPa 0,0 l/m 0,00 h 0,00 h 9 W/m 0,2 km/h (0 Bft) 97,73 %
20.01.2019 09:00 -6,0 C -3,3 C -6,9 C 90 % 1014,5 hPa 0,0 l/m 0,33 h 0,00 h 66 W/m 0,0 km/h (0 Bft) 95,70 %
20.01.2019 10:00 -3,1 C 3,5 C -4,2 C 92 % 1015,2 hPa 0,0 l/m 0,90 h 0,00 h 196 W/m 4,2 km/h (1 Bft) 96,26 %
20.01.2019 11:00 -0,0 C 4,5 C -1,5 C 76 % 1015,5 hPa 0,0 l/m 0,97 h 0,00 h 259 W/m 9,1 km/h (2 Bft) 95,90 %
20.01.2019 12:00 1,9 C 7,4 C 2,1 C 69 % 1015,6 hPa 0,0 l/m 1,00 h 0,00 h 343 W/m 9,7 km/h (2 Bft) 96,33 %
20.01.2019 13:00 2,7 C 7,6 C 1,1 C 65 % 1015,5 hPa 0,0 l/m 1,00 h 0,00 h 332 W/m 9,1 km/h (2 Bft) 95,66 %
20.01.2019 14:00 3,1 C 9,5 C 1,0 C 64 % 1015,6 hPa 0,0 l/m 1,00 h 0,00 h 270 W/m 5,6 km/h (1 Bft) 97,23 %
20.01.2019 15:00 2,6 C 2,4 C -0,4 C 64 % 1015,8 hPa 0,0 l/m 0,23 h 0,00 h 74 W/m 5,7 km/h (1 Bft) 91,04 %
20.01.2019 16:00 1,2 C -0,2 C -1,9 C 69 % 1016,1 hPa 0,0 l/m 0,00 h 0,00 h 18 W/m 6,8 km/h (2 Bft) 93,87 %
20.01.2019 17:00 -0,3 C -2,2 C -3,3 C 74 % 1016,8 hPa 0,0 l/m 0,00 h 0,00 h 4 W/m 4,6 km/h (1 Bft) 95,94 %
20.01.2019 18:00 -1,6 C -3,3 C -4,3 C 76 % 1017,2 hPa 0,0 l/m 0,00 h 0,00 h 0 W/m 0,0 km/h (0 Bft) 94,92 %
20.01.2019 19:00 -2,6 C -4,0 C -4,6 C 81 % 1017,7 hPa 0,0 l/m 0,00 h 0,00 h 0 W/m 1,5 km/h (1 Bft) 97,44 %
20.01.2019 20:00 -3,3 C -4,1 C -5,1 C 84 % 1018,3 hPa 0,0 l/m 0,00 h 0,00 h 0 W/m 0,9 km/h (0 Bft) 96,65 %
20.01.2019 21:00 -3,9 C -4,8 C -5,9 C 86 % 1018,8 hPa 0,0 l/m 0,00 h 0,00 h 0 W/m 0,0 km/h (0 Bft) 97,95 %
20.01.2019 22:00 -4,6 C -5,4 C -6,5 C 87 % 1019,4 hPa 0,0 l/m 0,00 h 0,00 h 0 W/m 0,1 km/h (0 Bft) 98,72 %
20.01.2019 23:00 -5,2 C -5,9 C -7,1 C 89 % 1019,9 hPa 0,0 l/m 0,00 h 0,00 h 0 W/m 0,1 km/h (0 Bft) 95,09 %
Min-Datum _ 20.01.19 20.01.19 20.01.19 20.01.19 17.01.19 - - - - 14.01.19 17.01.19
_ Min-Zeit 08:42 07:30 07:36 15:04 10:50 - - - - 17:20 11:14
Minimum _ -6,1 C -7,2 C -7,8 C 61 % 999,3 hPa - - - - 0,0 km/h (0 Bft) 68,09 %
Max-Datum _ 15.01.19 14.01.19 20.01.19 18.01.19 20.01.19 17.01.19 19.01.19 17.01.19 14.01.19 14.01.19 14.01.19
_ Max-Zeit 13:38 13:18 12:40 01:34 23:58 11:04 12:08 12:08 13:40 13:58 01:18
Maximum _ 7,1 C 12,2 C 7,2 C 98 % 1020,2 hPa 2,2 l/m 0,07 h 0,07 h 378 W/m 61,2 km/h
NW (7 Bft)
100,00 %
Durchschnitt _ 2,1 C 1,9 C 0,8 C 90 % 1012,0 hPa #12,2 l/m #15:26 h #17:08 h 93 W/m 11,3 km/h (2 Bft) 97,17 %
© 2019 W. Hausmann